Time;durP1;ratioP1;P1;durP2;ratioP2;P2;SDS_P1;SDS_P2;PMS_P1;PMS_P2;Temp;Humidity;BMP_temperature;BMP_pressure;BME280_temperature;BME280_humidity;BME280_pressure;Samples;Min_cycle;Max_cycle;Signal;HPM_P1;HPM_P2
2023/11/05 00:00:24;;;;;;;0.88;0.65;;;;;;;12.12;100.00;96354.94;5089865;28;20024;-76
2023/11/05 00:02:50;;;;;;;0.60;0.40;;;;;;;12.65;100.00;96351.03;5089784;28;20032;-75
2023/11/05 00:05:15;;;;;;;0.57;0.40;;;;;;;12.96;100.00;96330.31;5076644;28;20444;-75
2023/11/05 00:07:41;;;;;;;0.43;0.20;;;;;;;13.04;100.00;96333.19;5082601;28;20028;-76
2023/11/05 00:10:08;;;;;;;0.47;0.47;;;;;;;13.01;100.00;96334.28;5080444;28;20032;-76
2023/11/05 00:12:33;;;;;;;1.38;0.47;;;;;;;13.04;100.00;96365.41;5063122;28;20053;-74
2023/11/05 00:14:59;;;;;;;0.57;0.55;;;;;;;13.00;100.00;96380.91;5090473;28;20028;-76
2023/11/05 00:17:24;;;;;;;1.67;0.47;;;;;;;13.19;100.00;96365.84;5066150;28;20452;-76
2023/11/05 00:19:50;;;;;;;0.30;0.30;;;;;;;13.42;100.00;96340.41;5088193;28;20066;-75
2023/11/05 00:22:18;;;;;;;1.33;0.60;;;;;;;13.49;100.00;96377.31;5084128;28;20105;-75
2023/11/05 00:24:43;;;;;;;1.33;0.95;;;;;;;13.58;100.00;96321.88;5065566;28;20039;-75
2023/11/05 00:27:09;;;;;;;0.68;0.50;;;;;;;13.48;100.00;96338.00;5060803;28;20039;-75
2023/11/05 00:29:34;;;;;;;2.80;1.10;;;;;;;13.46;100.00;96337.31;5071821;28;20111;-76
2023/11/05 00:32:00;;;;;;;3.75;1.30;;;;;;;13.50;100.00;96340.56;5074618;28;20024;-76
2023/11/05 00:34:26;;;;;;;1.13;0.80;;;;;;;13.40;100.00;96318.22;5062459;28;20052;-76
2023/11/05 00:36:51;;;;;;;1.10;0.43;;;;;;;13.38;100.00;96315.66;5077195;28;20028;-76
2023/11/05 00:39:17;;;;;;;0.77;0.60;;;;;;;13.41;100.00;96342.25;5082873;28;20024;-75
2023/11/05 00:41:42;;;;;;;1.00;0.32;;;;;;;13.59;96.09;96326.28;5080126;28;20349;-75
2023/11/05 00:44:08;;;;;;;2.30;0.40;;;;;;;13.94;91.80;96320.25;5080744;28;20112;-76
2023/11/05 00:46:34;;;;;;;0.70;0.30;;;;;;;13.95;95.61;96336.25;5088015;28;20028;-76
2023/11/05 00:48:59;;;;;;;0.45;0.30;;;;;;;13.84;100.00;96306.81;5084352;28;20033;-75
2023/11/05 00:51:25;;;;;;;1.92;0.40;;;;;;;13.67;100.00;96325.53;5078817;28;20055;-75
2023/11/05 00:53:50;;;;;;;1.67;0.35;;;;;;;13.42;100.00;96335.88;5064030;28;20032;-76
2023/11/05 00:56:16;;;;;;;0.30;0.30;;;;;;;13.31;100.00;96329.81;5076656;28;20502;-75
2023/11/05 00:58:42;;;;;;;4.78;0.70;;;;;;;13.04;100.00;96351.97;5075888;28;20029;-76
2023/11/05 01:01:08;;;;;;;0.73;0.40;;;;;;;12.84;100.00;96339.50;5089505;28;20533;-75
2023/11/05 01:03:33;;;;;;;1.10;0.45;;;;;;;12.74;100.00;96336.78;5081925;28;20111;-75
2023/11/05 01:05:59;;;;;;;0.40;0.40;;;;;;;12.65;100.00;96352.84;5081587;28;20112;-76
2023/11/05 01:08:24;;;;;;;2.17;0.28;;;;;;;12.41;100.00;96362.09;5085628;28;20020;-75
2023/11/05 01:10:52;;;;;;;0.93;0.22;;;;;;;12.35;100.00;96357.28;5076966;28;20028;-75
2023/11/05 01:13:17;;;;;;;3.35;0.30;;;;;;;12.25;100.00;96340.31;5079745;28;20024;-76
2023/11/05 01:15:43;;;;;;;1.52;0.50;;;;;;;12.10;100.00;96360.41;5062150;28;20034;-76
2023/11/05 01:18:08;;;;;;;0.47;0.40;;;;;;;11.99;100.00;96360.50;5080048;28;20499;-75
2023/11/05 01:20:34;;;;;;;0.80;0.38;;;;;;;11.89;100.00;96364.94;5083144;28;20397;-75
2023/11/05 01:22:59;;;;;;;0.10;0.10;;;;;;;11.99;100.00;96317.63;5083800;28;20028;-76
2023/11/05 01:25:25;;;;;;;0.60;0.32;;;;;;;11.99;100.00;96360.50;5087082;28;20451;-75
2023/11/05 01:27:50;;;;;;;1.02;0.50;;;;;;;11.89;100.00;96344.38;5081886;28;20035;-76
2023/11/05 01:30:16;;;;;;;0.45;0.28;;;;;;;12.26;100.00;96301.78;5080303;28;20496;-75
2023/11/05 01:32:41;;;;;;;0.73;0.60;;;;;;;12.27;100.00;96305.34;5069401;28;20031;-76
2023/11/05 01:35:07;;;;;;;1.95;0.60;;;;;;;12.18;100.00;96311.50;5080315;28;20429;-74
2023/11/05 01:37:33;;;;;;;2.45;0.30;;;;;;;12.63;100.00;96303.88;5070706;28;20016;-75
2023/11/05 01:39:58;;;;;;;0.95;0.45;;;;;;;12.77;100.00;96303.47;5068940;28;20032;-76
2023/11/05 01:42:24;;;;;;;5.47;0.40;;;;;;;12.66;100.00;96315.19;5083418;28;20020;-75
2023/11/05 01:44:50;;;;;;;1.17;0.50;;;;;;;12.52;100.00;96318.22;5084558;28;20031;-75
2023/11/05 01:47:15;;;;;;;1.20;0.40;;;;;;;12.49;100.00;96332.75;5077930;28;20162;-76
2023/11/05 01:49:41;;;;;;;1.15;0.80;;;;;;;12.35;100.00;96335.84;5085560;28;20031;-76
2023/11/05 01:52:07;;;;;;;1.27;0.70;;;;;;;12.41;100.00;96319.19;5090017;28;20052;-75
2023/11/05 01:54:33;;;;;;;0.73;0.73;;;;;;;12.31;100.00;96329.03;5072729;28;20023;-75
2023/11/05 01:56:58;;;;;;;3.10;0.80;;;;;;;12.10;100.00;96325.56;5074833;28;20089;-75
2023/11/05 01:59:24;;;;;;;1.20;0.80;;;;;;;12.04;100.00;96336.81;5075201;28;20124;-75
2023/11/05 02:01:50;;;;;;;0.60;0.60;;;;;;;11.99;100.00;96343.56;5060793;28;20032;-75
2023/11/05 02:04:16;;;;;;;1.10;0.52;;;;;;;11.84;100.00;96330.50;5089642;28;20031;-75
2023/11/05 02:06:41;;;;;;;0.95;0.70;;;;;;;11.78;100.00;96351.63;5077457;28;20078;-75
2023/11/05 02:09:07;;;;;;;1.45;0.60;;;;;;;11.75;100.00;96349.22;5070747;28;20487;-75
2023/11/05 02:11:33;;;;;;;4.20;1.23;;;;;;;11.59;100.00;96335.41;5069399;28;20400;-75
2023/11/05 02:13:58;;;;;;;2.60;1.50;;;;;;;11.61;100.00;96354.88;5052740;28;20059;-75
2023/11/05 02:16:31;;;;;;;4.25;1.80;;;;;;;11.55;100.00;96361.59;5073094;28;20028;-76
2023/11/05 02:18:56;;;;;;;;;;;;;;;11.48;100.00;96367.59;5090007;28;20419;-76
2023/11/05 02:21:38;;;;;;;1.15;0.55;;;;;;;11.40;100.00;96366.44;5089444;28;19966;-75
2023/11/05 02:24:04;;;;;;;1.35;0.80;;;;;;;11.28;100.00;96375.47;5055114;28;20035;-75
2023/11/05 02:26:30;;;;;;;1.48;0.50;;;;;;;11.11;100.00;96368.00;5080417;28;20028;-75
2023/11/05 02:28:59;;;;;;;1.02;0.60;;;;;;;11.05;100.00;96373.84;5089103;28;20032;-76
2023/11/05 02:31:24;;;;;;;1.77;0.50;;;;;;;10.99;100.00;96355.63;5089436;28;20095;-75
2023/11/05 02:33:50;;;;;;;1.48;0.75;;;;;;;11.00;100.00;96383.25;5089744;28;20526;-76
2023/11/05 02:36:15;;;;;;;2.35;0.68;;;;;;;10.84;100.00;96383.66;5064821;28;20032;-75
2023/11/05 02:38:41;;;;;;;2.65;0.88;;;;;;;10.77;100.00;96382.44;5052256;28;20044;-75
2023/11/05 02:41:07;;;;;;;1.15;0.88;;;;;;;10.68;100.00;96389.38;5052348;28;20102;-75
2023/11/05 02:43:33;;;;;;;1.88;0.90;;;;;;;10.55;100.00;96379.81;5074595;28;20169;-75
2023/11/05 02:46:00;;;;;;;1.15;0.80;;;;;;;10.58;100.00;96388.41;5063207;28;20035;-75
2023/11/05 02:48:25;;;;;;;1.38;0.88;;;;;;;10.67;100.00;96386.84;5089084;28;20024;-76
2023/11/05 02:50:51;;;;;;;1.08;0.80;;;;;;;10.59;100.00;96391.94;5074367;28;20043;-75
2023/11/05 02:53:18;;;;;;;2.17;0.50;;;;;;;10.53;100.00;96376.41;5052677;28;20025;-74
2023/11/05 02:55:44;;;;;;;9.00;0.98;;;;;;;10.57;100.00;96367.16;5068956;28;20068;-74
2023/11/05 02:58:14;;;;;;;1.52;0.98;;;;;;;10.53;100.00;96360.38;5069018;28;20020;-74
2023/11/05 03:00:39;;;;;;;2.85;1.63;;;;;;;10.47;100.00;96367.06;5071654;28;20032;-76
2023/11/05 03:03:05;;;;;;;3.95;1.10;;;;;;;10.39;100.00;96363.31;5057923;28;20028;-75
2023/11/05 03:05:31;;;;;;;2.85;1.30;;;;;;;10.22;100.00;96362.81;5066230;28;20344;-76
2023/11/05 03:07:56;;;;;;;4.63;0.85;;;;;;;10.24;100.00;96379.56;5069105;28;20036;-75
2023/11/05 03:10:22;;;;;;;3.55;1.08;;;;;;;10.21;100.00;96374.47;5068902;28;20104;-75
2023/11/05 03:12:47;;;;;;;4.40;1.38;;;;;;;10.05;100.00;96370.44;5069850;28;20056;-75
2023/11/05 03:15:13;;;;;;;1.73;1.20;;;;;;;10.09;100.00;96362.06;5074967;28;20020;-75
2023/11/05 03:17:38;;;;;;;2.83;1.10;;;;;;;10.10;100.00;96362.91;5077619;28;20411;-75
2023/11/05 03:20:08;;;;;;;4.78;0.98;;;;;;;10.10;100.00;96374.44;5068896;28;20036;-75
2023/11/05 03:22:37;;;;;;;0.80;0.65;;;;;;;10.09;100.00;96385.28;5068516;28;20595;-76
2023/11/05 03:25:04;;;;;;;1.98;0.93;;;;;;;9.94;100.00;96384.63;5068853;28;20039;-75
2023/11/05 03:27:29;;;;;;;1.20;0.80;;;;;;;9.79;100.00;96380.47;5068688;28;20381;-75
2023/11/05 03:29:55;;;;;;;2.28;1.05;;;;;;;9.68;100.00;96401.84;5068552;28;20055;-75
2023/11/05 03:32:21;;;;;;;3.22;1.15;;;;;;;9.60;100.00;96390.88;5051918;28;20107;-74
2023/11/05 03:34:47;;;;;;;1.60;0.80;;;;;;;9.54;100.00;96400.22;5056977;28;20024;-74
2023/11/05 03:37:12;;;;;;;1.08;0.90;;;;;;;9.54;100.00;96404.69;5071893;28;20034;-75
2023/11/05 03:39:38;;;;;;;2.00;1.25;;;;;;;9.45;100.00;96400.03;5080566;28;20062;-75
2023/11/05 03:42:04;;;;;;;2.28;1.02;;;;;;;9.45;100.00;96405.38;5092176;28;20485;-75
2023/11/05 03:44:30;;;;;;;3.08;1.45;;;;;;;9.37;100.00;96402.47;5073544;28;20408;-75
2023/11/05 03:46:56;;;;;;;9.45;3.58;;;;;;;9.32;100.00;96405.47;5077834;28;20060;-75
2023/11/05 03:49:22;;;;;;;2.13;1.58;;;;;;;9.43;100.00;96412.66;5073160;28;20116;-75
2023/11/05 03:51:48;;;;;;;4.93;1.65;;;;;;;9.38;100.00;96410.38;5075458;28;20032;-74
2023/11/05 03:54:13;;;;;;;5.05;2.35;;;;;;;9.45;100.00;96421.41;5082842;28;20097;-74
2023/11/05 03:56:40;;;;;;;5.70;1.70;;;;;;;9.37;100.00;96418.47;5072209;28;20024;-75
2023/11/05 03:59:06;;;;;;;4.70;2.22;;;;;;;9.39;100.00;96429.88;5081481;28;20483;-75
2023/11/05 04:01:31;;;;;;;4.40;1.20;;;;;;;9.27;100.00;96411.16;5093527;28;20507;-75
2023/11/05 04:03:57;;;;;;;1.42;1.05;;;;;;;9.30;100.00;96417.22;5092291;28;20043;-76
2023/11/05 04:06:23;;;;;;;5.90;1.30;;;;;;;9.32;100.00;96417.97;5092111;28;20024;-76
2023/11/05 04:08:48;;;;;;;1.85;1.40;;;;;;;9.34;100.00;96405.34;5079576;28;20040;-74
2023/11/05 04:11:15;;;;;;;4.75;2.33;;;;;;;9.25;100.00;96413.09;5055041;28;20129;-75
2023/11/05 04:13:43;;;;;;;1.98;1.10;;;;;;;9.12;100.00;96420.31;5088574;28;20103;-74
2023/11/05 04:16:09;;;;;;;2.88;1.38;;;;;;;9.12;100.00;96406.13;5071616;28;20037;-75
2023/11/05 04:18:34;;;;;;;1.20;0.90;;;;;;;8.98;100.00;96411.63;5071335;28;20034;-75
2023/11/05 04:21:00;;;;;;;1.83;1.10;;;;;;;9.01;100.00;96424.75;5087992;28;20102;-75
2023/11/05 04:23:26;;;;;;;0.93;0.80;;;;;;;9.00;100.00;96404.34;5080129;28;20026;-76
2023/11/05 04:25:51;;;;;;;1.27;0.85;;;;;;;8.99;100.00;96406.16;5076622;28;20536;-76
2023/11/05 04:28:17;;;;;;;1.48;0.80;;;;;;;9.08;100.00;96405.50;5063496;28;20089;-75
2023/11/05 04:30:42;;;;;;;4.63;0.70;;;;;;;9.03;100.00;96397.00;5080587;28;20029;-75
2023/11/05 04:33:08;;;;;;;1.40;0.80;;;;;;;9.06;100.00;96410.09;5078536;28;20035;-76
2023/11/05 04:35:33;;;;;;;2.08;0.85;;;;;;;9.06;100.00;96431.44;5084818;28;20023;-75
2023/11/05 04:37:59;;;;;;;6.20;0.75;;;;;;;8.95;100.00;96403.84;5060198;28;20032;-75
2023/11/05 04:40:25;;;;;;;3.85;1.10;;;;;;;8.91;100.00;96413.03;5090521;28;20016;-75
2023/11/05 04:42:50;;;;;;;1.27;0.93;;;;;;;8.86;100.00;96416.03;5079819;28;20056;-75
2023/11/05 04:45:16;;;;;;;1.90;0.93;;;;;;;8.88;100.00;96426.59;5065382;28;20028;-76
2023/11/05 04:47:41;;;;;;;1.10;0.90;;;;;;;8.84;100.00;96430.44;5083548;28;20020;-75
2023/11/05 04:50:07;;;;;;;3.42;0.93;;;;;;;8.92;100.00;96431.56;5082285;28;20031;-75
2023/11/05 04:52:33;;;;;;;10.02;1.45;;;;;;;8.90;100.00;96436.19;5076188;28;20024;-74
2023/11/05 04:55:00;;;;;;;2.45;1.55;;;;;;;8.89;100.00;96430.97;5071476;28;20055;-75
2023/11/05 04:57:26;;;;;;;4.53;1.60;;;;;;;8.87;100.00;96406.22;5068207;28;20024;-75
2023/11/05 04:59:52;;;;;;;4.68;1.40;;;;;;;9.04;100.00;96427.19;5065680;28;20027;-75
2023/11/05 05:02:17;;;;;;;1.80;0.82;;;;;;;9.57;100.00;96412.47;5082688;28;20036;-75
2023/11/05 05:04:43;;;;;;;0.55;0.55;;;;;;;10.13;100.00;96392.06;5089729;28;20107;-75
2023/11/05 05:07:08;;;;;;;3.03;0.82;;;;;;;10.62;100.00;96394.38;5065411;28;20416;-74
2023/11/05 05:09:35;;;;;;;2.88;0.60;;;;;;;10.77;100.00;96385.09;5084890;28;20074;-76
2023/11/05 05:12:00;;;;;;;1.38;0.55;;;;;;;11.13;100.00;96387.47;5085451;28;20027;-75
2023/11/05 05:14:26;;;;;;;0.43;0.40;;;;;;;11.37;100.00;96390.78;5082518;28;20032;-75
2023/11/05 05:16:53;;;;;;;1.58;0.60;;;;;;;11.58;100.00;96388.13;5077000;28;20051;-76
2023/11/05 05:19:19;;;;;;;1.70;0.57;;;;;;;11.68;100.00;96380.16;5059737;28;20522;-74
2023/11/05 05:21:45;;;;;;;1.42;0.65;;;;;;;11.90;100.00;96382.75;5061960;28;20024;-74
2023/11/05 05:24:11;;;;;;;1.92;0.43;;;;;;;12.09;100.00;96377.47;5062264;28;20024;-74
2023/11/05 05:26:36;;;;;;;3.60;0.52;;;;;;;12.10;100.00;96371.13;5087314;28;20081;-75
2023/11/05 05:29:05;;;;;;;0.93;0.70;;;;;;;12.24;100.00;96376.13;5062210;28;20031;-76
2023/11/05 05:31:33;;;;;;;0.65;0.50;;;;;;;12.49;100.00;96370.31;5088863;28;20039;-76
2023/11/05 05:33:59;;;;;;;1.50;0.50;;;;;;;12.57;100.00;96363.44;5070890;28;20103;-75
2023/11/05 05:36:25;;;;;;;1.17;0.88;;;;;;;12.72;100.00;96370.09;5087670;28;20463;-75
2023/11/05 05:38:54;;;;;;;1.52;0.75;;;;;;;12.79;100.00;96382.84;5082031;28;20088;-74
2023/11/05 05:41:20;;;;;;;0.75;0.52;;;;;;;12.89;100.00;96374.78;5087576;28;20446;-74
2023/11/05 05:43:45;;;;;;;1.20;0.80;;;;;;;13.16;100.00;96388.47;5070726;28;20035;-75
2023/11/05 05:46:15;;;;;;;9.27;1.10;;;;;;;13.30;100.00;96382.69;5065058;28;20054;-75
2023/11/05 05:48:40;;;;;;;2.88;0.75;;;;;;;13.34;100.00;96378.75;5064855;28;20039;-75
2023/11/05 05:51:10;;;;;;;1.42;0.68;;;;;;;13.40;100.00;96377.31;5076933;28;20028;-75
2023/11/05 05:53:36;;;;;;;3.05;0.98;;;;;;;13.45;100.00;96380.41;5078573;28;20027;-74
2023/11/05 05:56:01;;;;;;;2.50;0.85;;;;;;;13.50;100.00;96379.00;5084407;28;20063;-79
2023/11/05 05:58:27;;;;;;;1.30;0.68;;;;;;;13.61;100.00;96374.47;5089685;28;20028;-75
2023/11/05 06:00:53;;;;;;;1.58;0.80;;;;;;;13.71;100.00;96381.56;5069385;28;20492;-73
2023/11/05 06:03:18;;;;;;;1.67;0.80;;;;;;;13.82;100.00;96380.53;5057723;28;20448;-75
2023/11/05 06:05:44;;;;;;;1.98;0.60;;;;;;;14.19;100.00;96369.84;5073301;28;20404;-75
2023/11/05 06:08:09;;;;;;;3.55;0.68;;;;;;;15.11;94.05;96355.41;5069550;28;20051;-75
2023/11/05 06:10:35;;;;;;;1.05;0.60;;;;;;;16.29;81.93;96343.31;5089512;28;20039;-75
2023/11/05 06:13:00;;;;;;;0.75;0.55;;;;;;;17.21;72.52;96343.38;5088692;28;20028;-74
2023/11/05 06:15:26;;;;;;;2.40;0.80;;;;;;;18.36;68.57;96333.28;5052603;28;20115;-74
2023/11/05 06:17:52;;;;;;;1.85;0.80;;;;;;;19.29;62.00;96323.44;5079339;28;20023;-75
2023/11/05 06:20:17;;;;;;;2.28;0.50;;;;;;;19.73;57.93;96327.25;5082240;28;20048;-75
2023/11/05 06:22:44;;;;;;;3.78;0.73;;;;;;;20.15;55.96;96304.16;5082882;28;20044;-72
2023/11/05 06:25:10;;;;;;;5.32;1.98;;;;;;;20.93;53.83;96297.16;5068814;28;20097;-74
2023/11/05 06:27:41;;;;;;;4.28;1.77;;;;;;;21.23;51.16;96288.97;5070644;28;20032;-74
2023/11/05 06:30:08;;;;;;;3.10;1.40;;;;;;;21.48;49.92;96285.69;5070189;28;20035;-73
2023/11/05 06:32:34;;;;;;;11.23;7.72;;;;;;;22.06;48.58;96257.38;5059933;28;20436;-74
2023/11/05 06:35:00;;;;;;;16.50;8.00;;;;;;;22.60;46.75;96262.13;5089019;28;20124;-74
2023/11/05 06:37:26;;;;;;;1.63;1.08;;;;;;;22.75;44.96;96241.06;5084541;28;20102;-73
2023/11/05 06:39:52;;;;;;;1.90;1.02;;;;;;;22.76;44.74;96240.03;5068843;28;20028;-73
2023/11/05 06:42:18;;;;;;;7.20;1.65;;;;;;;23.59;44.23;96241.59;5069810;28;20402;-75
2023/11/05 06:44:45;;;;;;;5.65;1.50;;;;;;;23.86;42.72;96243.28;5069925;28;20044;-75
2023/11/05 06:47:11;;;;;;;2.22;0.90;;;;;;;24.26;41.26;96264.13;5069680;28;20090;-75
2023/11/05 06:49:36;;;;;;;0.82;0.40;;;;;;;23.39;41.17;96267.94;5083612;28;20123;-76
2023/11/05 06:52:02;;;;;;;2.28;0.88;;;;;;;23.58;44.51;96286.31;5055562;28;20028;-75
2023/11/05 06:54:27;;;;;;;0.77;0.30;;;;;;;23.02;42.80;96277.47;5084237;28;20028;-77
2023/11/05 06:56:53;;;;;;;4.10;1.60;;;;;;;22.93;46.56;96273.25;5069025;28;20457;-75
2023/11/05 06:59:19;;;;;;;2.10;0.95;;;;;;;23.22;44.62;96273.75;5068366;28;20032;-75
2023/11/05 07:01:46;;;;;;;23.13;13.85;;;;;;;22.91;46.02;96265.28;5082399;28;20030;-75
2023/11/05 07:04:13;;;;;;;1.40;0.90;;;;;;;22.81;44.74;96262.06;5079364;28;20020;-74
2023/11/05 07:06:38;;;;;;;2.38;1.73;;;;;;;22.89;45.73;96270.06;5074299;28;20114;-75
2023/11/05 07:09:06;;;;;;;8.20;5.40;;;;;;;22.51;46.88;96268.78;5079342;28;20050;-76
2023/11/05 07:11:32;;;;;;;2.58;1.27;;;;;;;21.65;46.72;96259.09;5081220;28;20020;-73
2023/11/05 07:13:58;;;;;;;0.90;0.70;;;;;;;21.93;46.12;96265.41;5083649;28;20081;-73
2023/11/05 07:16:25;;;;;;;1.08;0.98;;;;;;;22.84;47.62;96280.75;5072640;28;20024;-75
2023/11/05 07:18:51;;;;;;;3.28;0.75;;;;;;;22.62;49.42;96279.97;5086620;28;20059;-73
2023/11/05 07:21:17;;;;;;;3.47;1.35;;;;;;;23.41;46.27;96274.09;5090184;28;20081;-73
2023/11/05 07:23:43;;;;;;;1.33;0.93;;;;;;;24.33;43.68;96255.91;5083727;28;20512;-73
2023/11/05 07:26:08;;;;;;;31.80;18.42;;;;;;;24.42;46.03;96265.59;5076292;28;20483;-74
2023/11/05 07:28:34;;;;;;;9.48;6.93;;;;;;;24.69;45.04;96253.53;5083654;28;20066;-75
2023/11/05 07:31:00;;;;;;;3.42;2.72;;;;;;;24.76;42.00;96237.09;5075979;28;20119;-72
2023/11/05 07:33:25;;;;;;;0.73;0.45;;;;;;;23.99;41.34;96220.59;5090407;28;20032;-74
2023/11/05 07:35:51;;;;;;;0.20;0.20;;;;;;;23.42;42.86;96235.66;5086967;28;20070;-74
2023/11/05 07:38:16;;;;;;;1.98;0.75;;;;;;;24.12;42.03;96237.00;5070645;28;20035;-74
2023/11/05 07:40:42;;;;;;;2.17;0.60;;;;;;;24.94;40.73;96215.41;5079013;28;20032;-74
2023/11/05 07:43:07;;;;;;;6.32;2.03;;;;;;;25.42;40.43;96218.50;5079215;28;20040;-74
2023/11/05 07:45:33;;;;;;;5.82;2.95;;;;;;;25.53;38.57;96186.88;5075941;28;20020;-74
2023/11/05 07:47:58;;;;;;;2.42;0.98;;;;;;;25.93;38.36;96193.72;5078181;28;20472;-73
2023/11/05 07:50:25;;;;;;;2.55;1.73;;;;;;;25.21;39.55;96195.03;5072729;28;20502;-74
2023/11/05 07:52:51;;;;;;;0.45;0.40;;;;;;;25.04;38.17;96193.84;5092224;28;20399;-77
2023/11/05 07:55:17;;;;;;;3.97;2.72;;;;;;;24.45;39.21;96176.81;5093777;28;20028;-78
2023/11/05 07:57:43;;;;;;;1.20;0.40;;;;;;;24.31;38.55;96186.09;5063542;28;20029;-74
2023/11/05 08:00:18;;;;;;;1.05;0.50;;;;;;;24.06;38.85;96191.34;5079969;28;20467;-74
2023/11/05 08:02:45;;;;;;;1.02;0.50;;;;;;;23.78;40.12;96207.16;5088531;28;20031;-73
2023/11/05 08:05:10;;;;;;;1.15;0.52;;;;;;;24.21;39.59;96184.63;5087203;28;20028;-74
2023/11/05 08:07:36;;;;;;;1.08;0.90;;;;;;;25.39;37.59;96177.88;5066365;28;20411;-74
2023/11/05 08:10:06;;;;;;;1.88;1.40;;;;;;;24.81;38.06;96168.94;5077838;28;20036;-74
2023/11/05 08:12:32;;;;;;;1.70;0.60;;;;;;;25.12;37.65;96146.25;5071316;28;20027;-74
2023/11/05 08:14:58;;;;;;;0.85;0.60;;;;;;;24.57;37.81;96142.28;5076476;28;20032;-74
2023/11/05 08:17:24;;;;;;;0.85;0.45;;;;;;;24.44;38.68;96159.56;5091398;28;20028;-74
2023/11/05 08:19:50;;;;;;;0.65;0.30;;;;;;;24.72;38.57;96153.78;5091527;28;20048;-75
2023/11/05 08:22:16;;;;;;;0.50;0.47;;;;;;;25.19;37.61;96138.84;5091657;28;20033;-74
2023/11/05 08:24:43;;;;;;;1.05;0.90;;;;;;;25.33;37.47;96146.75;5091346;28;20114;-74
2023/11/05 08:27:10;;;;;;;1.75;1.00;;;;;;;24.82;37.66;96145.16;5073838;28;20028;-74
2023/11/05 08:29:36;;;;;;;1.80;0.40;;;;;;;24.43;37.92;96126.97;5073078;28;20044;-76
2023/11/05 08:32:01;;;;;;;1.40;0.57;;;;;;;25.20;38.22;96137.75;5072535;28;20025;-75
2023/11/05 08:34:27;;;;;;;1.55;0.80;;;;;;;25.49;38.69;96130.84;5070952;28;20498;-76
2023/11/05 08:36:54;;;;;;;2.35;1.40;;;;;;;26.04;37.94;96118.13;5087693;28;20024;-75
2023/11/05 08:39:20;;;;;;;2.75;1.20;;;;;;;25.70;37.63;96117.63;5071233;28;20034;-74
2023/11/05 08:41:46;;;;;;;2.10;1.40;;;;;;;25.73;36.94;96098.00;5090110;28;20283;-75
2023/11/05 08:44:11;;;;;;;3.33;1.05;;;;;;;24.67;38.97;96104.38;5085399;28;20294;-74
2023/11/05 08:46:37;;;;;;;2.08;0.75;;;;;;;23.75;39.79;96078.16;5054102;28;20047;-74
2023/11/05 08:49:03;;;;;;;4.25;0.65;;;;;;;23.37;40.10;96079.00;5058713;28;20024;-74
2023/11/05 08:51:28;;;;;;;2.28;0.82;;;;;;;23.56;40.62;96075.47;5091034;28;20103;-76
2023/11/05 08:53:54;;;;;;;2.00;0.63;;;;;;;23.71;39.98;96052.34;5087567;28;20028;-75
2023/11/05 08:56:20;;;;;;;1.90;0.70;;;;;;;24.10;40.08;96062.31;5054165;28;20044;-74
2023/11/05 08:58:48;;;;;;;0.45;0.40;;;;;;;24.72;39.22;96056.16;5070511;28;20509;-73
2023/11/05 09:01:16;;;;;;;1.30;0.55;;;;;;;24.93;38.75;96065.94;5079088;28;20386;-75
2023/11/05 09:03:45;;;;;;;5.30;0.65;;;;;;;23.57;39.94;96055.28;5079932;28;20035;-75
2023/11/05 09:06:11;;;;;;;1.55;0.60;;;;;;;24.48;39.25;96051.47;5073824;28;20115;-75
2023/11/05 09:08:39;;;;;;;1.25;0.50;;;;;;;24.72;38.52;96041.66;5090796;28;20161;-74
2023/11/05 09:11:09;;;;;;;0.93;0.70;;;;;;;24.15;39.96;96043.38;5087606;28;20084;-75
2023/11/05 09:13:35;;;;;;;1.48;0.50;;;;;;;23.97;40.29;96035.03;5077246;28;20395;-75
2023/11/05 09:16:02;;;;;;;1.98;1.10;;;;;;;24.29;39.87;96041.47;5089139;28;20035;-76
2023/11/05 09:18:28;;;;;;;3.10;0.57;;;;;;;23.92;40.09;96045.75;5089446;28;20024;-76
2023/11/05 09:20:56;;;;;;;2.15;0.40;;;;;;;24.06;40.17;96041.06;5070788;28;20169;-76
2023/11/05 09:23:23;;;;;;;2.47;1.08;;;;;;;23.47;40.39;96031.13;5059992;28;20028;-75
2023/11/05 09:25:49;;;;;;;0.98;0.40;;;;;;;23.83;40.87;96035.28;5080648;28;20495;-74
2023/11/05 09:28:15;;;;;;;0.80;0.63;;;;;;;24.08;40.13;96028.06;5068706;28;20032;-75
2023/11/05 09:30:42;;;;;;;1.75;0.80;;;;;;;24.40;39.54;96034.44;5061797;28;20099;-75
2023/11/05 09:33:08;;;;;;;1.85;0.50;;;;;;;25.06;38.13;96030.28;5070122;28;20036;-75
2023/11/05 09:35:34;;;;;;;3.47;0.50;;;;;;;25.07;38.50;96023.75;5076347;28;20476;-76
2023/11/05 09:38:02;;;;;;;0.73;0.57;;;;;;;26.19;37.28;96018.03;5076560;28;20039;-76
2023/11/05 09:40:27;;;;;;;1.13;0.52;;;;;;;26.76;36.73;96004.84;5084792;28;20062;-76
2023/11/05 09:43:00;;;;;;;5.45;0.63;;;;;;;26.67;35.83;96009.00;5085555;28;20068;-77
2023/11/05 09:45:30;;;;;;;2.67;0.52;;;;;;;26.87;36.49;95999.41;5076032;28;20115;-76
2023/11/05 09:47:58;;;;;;;2.38;0.40;;;;;;;27.28;36.54;95992.22;5056667;28;20090;-76
2023/11/05 09:50:24;;;;;;;1.17;0.45;;;;;;;27.00;35.58;95975.56;5085822;28;20024;-75
2023/11/05 09:52:51;;;;;;;1.48;0.52;;;;;;;26.02;37.15;95972.28;5059792;28;20555;-75
2023/11/05 09:55:17;;;;;;;2.28;0.70;;;;;;;25.44;38.24;95974.59;5064127;28;20088;-75
2023/11/05 09:57:42;;;;;;;0.50;0.30;;;;;;;24.72;38.64;95970.53;5080216;28;20024;-75
2023/11/05 10:00:09;;;;;;;3.67;1.92;;;;;;;25.23;39.19;95967.59;5079830;28;20024;-74
2023/11/05 10:02:56;;;;;;;1.00;0.70;;;;;;;25.72;37.75;95950.28;5084162;28;20106;-75
2023/11/05 10:05:33;;;;;;;3.33;0.60;;;;;;;25.28;39.28;95960.41;5082474;28;20028;-74
2023/11/05 10:07:59;;;;;;;1.42;0.68;;;;;;;25.40;38.55;95954.19;5074685;28;20070;-75
2023/11/05 10:10:25;;;;;;;3.17;0.73;;;;;;;25.67;38.51;95942.75;5067671;28;20107;-75
2023/11/05 10:12:53;;;;;;;1.60;0.70;;;;;;;24.64;40.00;95946.19;5079404;28;20166;-74
2023/11/05 10:15:20;;;;;;;2.10;0.55;;;;;;;24.35;40.63;95931.25;5059607;28;20447;-74
2023/11/05 10:17:45;;;;;;;2.67;0.50;;;;;;;24.44;40.06;95929.94;5054119;28;20043;-75
2023/11/05 10:20:11;;;;;;;0.70;0.50;;;;;;;24.70;40.11;95929.72;5077190;28;20052;-74
2023/11/05 10:22:43;;;;;;;1.05;0.40;;;;;;;25.05;39.71;95929.25;5075936;28;20035;-74
2023/11/05 10:25:16;;;;;;;0.65;0.40;;;;;;;25.52;38.76;95895.75;5085686;28;20032;-75
2023/11/05 10:27:41;;;;;;;1.60;0.63;;;;;;;25.59;38.26;95901.16;5076140;28;20507;-76
2023/11/05 10:30:08;;;;;;;1.52;0.60;;;;;;;25.16;39.59;95928.53;5075434;28;20039;-74
2023/11/05 10:32:37;;;;;;;0.60;0.50;;;;;;;24.74;39.65;95924.66;5055658;28;20070;-74
2023/11/05 10:35:03;;;;;;;1.58;0.98;;;;;;;25.22;39.39;95908.47;5079620;28;20407;-75
2023/11/05 10:37:29;;;;;;;0.55;0.35;;;;;;;25.59;38.00;95901.16;5055173;28;20449;-75
2023/11/05 10:39:55;;;;;;;2.15;0.60;;;;;;;26.22;38.08;95893.38;5080298;28;20071;-76
2023/11/05 10:42:21;;;;;;;2.60;0.88;;;;;;;26.15;38.07;95884.38;5077447;28;20059;-74
2023/11/05 10:44:47;;;;;;;1.85;0.80;;;;;;;26.27;37.17;95883.38;5082122;28;20028;-74
2023/11/05 10:47:14;;;;;;;0.70;0.47;;;;;;;26.22;37.89;95875.03;5078434;28;20474;-74
2023/11/05 10:49:40;;;;;;;1.88;0.50;;;;;;;25.91;37.00;95861.50;5074335;28;20027;-74
2023/11/05 10:52:07;;;;;;;2.45;0.80;;;;;;;26.10;36.64;95882.34;5092398;28;20016;-74
2023/11/05 10:54:34;;;;;;;0.73;0.50;;;;;;;26.62;36.00;95896.34;5080788;28;20107;-74
2023/11/05 10:57:00;;;;;;;7.43;1.02;;;;;;;26.19;35.97;95886.47;5090772;28;20114;-74
2023/11/05 10:59:37;;;;;;;1.60;0.50;;;;;;;26.42;35.07;95879.38;5084089;28;20440;-75
2023/11/05 11:02:06;;;;;;;0.82;0.50;;;;;;;27.03;34.37;95874.38;5077371;28;20020;-75
2023/11/05 11:04:32;;;;;;;1.48;0.38;;;;;;;26.77;35.21;95897.56;5081701;28;20023;-73
2023/11/05 11:06:58;;;;;;;1.35;0.55;;;;;;;26.70;35.84;95907.00;5082046;28;20031;-74
2023/11/05 11:09:25;;;;;;;6.38;3.35;;;;;;;26.89;37.13;95900.34;5067844;28;20095;-75
2023/11/05 11:11:53;;;;;;;1.77;0.70;;;;;;;25.73;37.58;95898.00;5072182;28;20020;-75
2023/11/05 11:14:18;;;;;;;6.68;1.85;;;;;;;24.86;39.11;95895.53;5073092;28;20020;-74
2023/11/05 11:16:45;;;;;;;1.23;0.77;;;;;;;23.74;40.80;95888.06;5084313;28;20031;-75
2023/11/05 11:19:12;;;;;;;2.33;0.60;;;;;;;22.96;42.71;95919.09;5084183;28;20045;-74
2023/11/05 11:22:01;;;;;;;0.90;0.45;;;;;;;22.43;43.18;95910.06;5082997;28;20051;-75
2023/11/05 11:24:36;;;;;;;0.73;0.40;;;;;;;22.52;43.97;95894.34;5081196;28;20367;-74